createdAt,value
2022-10-28T00:01:07.954Z,90.30
2022-10-28T00:03:38.763Z,90.20
2022-10-28T00:06:08.327Z,90.20
2022-10-28T00:08:35.263Z,90.10
2022-10-28T00:11:07.227Z,90.10
2022-10-28T00:13:35.108Z,90.00
2022-10-28T00:16:17.396Z,89.90
2022-10-28T00:18:44.793Z,89.80
2022-10-28T00:21:18.046Z,89.60
2022-10-28T00:23:45.507Z,89.50
2022-10-28T00:26:19.770Z,89.40
2022-10-28T00:28:49.518Z,89.30
2022-10-28T00:31:18.590Z,89.40
2022-10-28T00:33:45.955Z,89.40
2022-10-28T00:36:17.553Z,89.50
2022-10-28T00:38:47.903Z,89.40
2022-10-28T00:41:19.197Z,89.10
2022-10-28T00:43:50.413Z,89.00
2022-10-28T00:46:23.534Z,88.90
2022-10-28T00:48:55.453Z,88.70
2022-10-28T00:51:24.529Z,88.50
2022-10-28T00:53:53.935Z,88.40
2022-10-28T00:56:22.322Z,88.20
2022-10-28T00:58:50.180Z,88.10
2022-10-28T01:01:17.210Z,88.00
2022-10-28T01:03:44.255Z,87.90
2022-10-28T01:06:11.192Z,88.00
2022-10-28T01:08:38.271Z,88.00
2022-10-28T01:11:24.137Z,88.00
2022-10-28T01:14:32.355Z,88.10
2022-10-28T01:17:05.256Z,88.20
2022-10-28T01:20:18.711Z,88.20
2022-10-28T01:22:57.886Z,88.20
2022-10-28T01:25:46.867Z,88.20
2022-10-28T01:29:10.669Z,88.00
2022-10-28T01:31:53.717Z,87.70
2022-10-28T01:34:35.911Z,87.60
2022-10-28T01:37:03.028Z,87.30
2022-10-28T01:40:07.481Z,87.30
2022-10-28T01:42:54.032Z,87.00
2022-10-28T01:45:34.735Z,87.00
2022-10-28T01:48:09.684Z,87.00
2022-10-28T01:50:55.656Z,87.00
2022-10-28T01:53:27.861Z,86.90
2022-10-28T01:55:57.827Z,86.90
2022-10-28T01:58:29.740Z,86.80
2022-10-28T02:00:59.679Z,86.50
2022-10-28T02:03:27.996Z,86.30
2022-10-28T02:05:57.429Z,86.10
2022-10-28T02:08:46.334Z,86.10
2022-10-28T02:11:22.268Z,86.20
2022-10-28T02:13:58.335Z,86.40
2022-10-28T02:16:58.544Z,86.70
2022-10-28T02:19:49.931Z,87.00
2022-10-28T02:22:40.814Z,87.30
2022-10-28T02:25:09.914Z,87.40
2022-10-28T02:27:41.967Z,87.20
2022-10-28T02:30:14.086Z,87.20
2022-10-28T02:32:45.054Z,87.20
2022-10-28T02:35:21.242Z,86.90
2022-10-28T02:37:51.177Z,86.60
2022-10-28T02:40:26.387Z,86.30
2022-10-28T02:42:57.393Z,85.80
2022-10-28T02:45:45.113Z,85.80
2022-10-28T02:48:18.564Z,85.80
2022-10-28T02:50:55.740Z,86.10
2022-10-28T02:53:36.514Z,86.20
2022-10-28T02:56:06.140Z,86.20
2022-10-28T02:58:40.778Z,86.10
2022-10-28T03:01:08.132Z,86.00
2022-10-28T03:03:35.328Z,85.90
2022-10-28T03:06:02.333Z,85.70
2022-10-28T03:08:29.314Z,85.40
2022-10-28T03:10:56.353Z,85.00
2022-10-28T03:13:23.435Z,84.80
2022-10-28T03:15:50.486Z,84.90
2022-10-28T03:18:17.474Z,85.00
2022-10-28T03:20:44.437Z,85.10
2022-10-28T03:23:11.461Z,85.20
2022-10-28T03:25:38.572Z,85.20
2022-10-28T03:28:05.687Z,85.10
2022-10-28T03:30:32.655Z,84.90
2022-10-28T03:32:59.632Z,85.00
2022-10-28T03:35:26.702Z,85.20
2022-10-28T03:37:53.699Z,85.40
2022-10-28T03:40:20.726Z,85.30
2022-10-28T03:42:47.782Z,85.40
2022-10-28T03:45:15.005Z,85.50
2022-10-28T03:47:43.272Z,85.70
2022-10-28T03:50:10.544Z,85.90
2022-10-28T03:52:37.766Z,85.90
2022-10-28T03:55:05.407Z,85.90
2022-10-28T03:57:33.659Z,85.90
2022-10-28T04:00:00.740Z,86.00
2022-10-28T04:02:27.928Z,86.10
2022-10-28T04:04:55.098Z,86.20
2022-10-28T04:07:22.518Z,86.20
2022-10-28T04:09:51.448Z,86.10
2022-10-28T04:12:19.101Z,86.00
2022-10-28T04:14:46.124Z,85.80
2022-10-28T04:17:13.371Z,85.40
2022-10-28T04:19:40.368Z,85.20
2022-10-28T04:22:09.211Z,85.10
2022-10-28T04:24:36.229Z,85.00
2022-10-28T04:27:03.352Z,85.00
2022-10-28T04:29:32.324Z,84.90
2022-10-28T04:31:59.636Z,84.90
2022-10-28T04:34:26.822Z,85.00
2022-10-28T04:36:53.882Z,84.90
2022-10-28T04:39:20.887Z,85.00
2022-10-28T04:41:47.957Z,85.00
2022-10-28T04:44:14.932Z,85.00
2022-10-28T04:46:42.441Z,84.90
2022-10-28T04:49:09.986Z,84.90
2022-10-28T04:51:36.988Z,84.80
2022-10-28T04:54:04.185Z,84.70
2022-10-28T04:56:33.260Z,84.80
2022-10-28T04:59:00.268Z,84.90
2022-10-28T05:01:27.431Z,85.00
2022-10-28T05:03:54.530Z,85.00
2022-10-28T05:06:21.466Z,84.90
2022-10-28T05:08:48.401Z,84.90
2022-10-28T05:11:15.390Z,84.90
2022-10-28T05:13:42.341Z,84.90
2022-10-28T05:16:09.420Z,84.70
2022-10-28T05:18:36.413Z,84.70
2022-10-28T05:21:03.503Z,84.60
2022-10-28T05:23:31.062Z,84.50
2022-10-28T05:25:58.188Z,84.30
2022-10-28T05:28:25.217Z,84.20
2022-10-28T05:30:52.193Z,84.10
2022-10-28T05:33:20.450Z,84.00
2022-10-28T05:35:47.616Z,84.00
2022-10-28T05:38:14.657Z,84.00
2022-10-28T05:40:41.727Z,83.80
2022-10-28T05:43:10.063Z,83.70
2022-10-28T05:45:37.132Z,83.40
2022-10-28T05:48:04.295Z,83.20
2022-10-28T05:50:31.237Z,83.20
2022-10-28T05:52:58.388Z,83.10
2022-10-28T05:55:28.433Z,83.10
2022-10-28T05:57:56.889Z,83.20
2022-10-28T06:00:25.939Z,83.20
2022-10-28T06:02:53.255Z,83.20
2022-10-28T06:05:20.629Z,83.20
2022-10-28T06:07:47.618Z,83.10
2022-10-28T06:10:14.589Z,83.00
2022-10-28T06:12:40.025Z,82.90
2022-10-28T06:15:07.389Z,82.80
2022-10-28T06:17:34.380Z,82.40
2022-10-28T06:20:02.026Z,82.10
2022-10-28T06:22:29.060Z,81.70
2022-10-28T06:24:56.107Z,81.30
2022-10-28T06:27:23.067Z,80.70
2022-10-28T06:29:50.015Z,80.10
2022-10-28T06:32:16.948Z,79.80
2022-10-28T06:34:43.903Z,79.80
2022-10-28T06:37:10.874Z,79.50
2022-10-28T06:39:38.480Z,76.70
2022-10-28T06:42:05.557Z,72.60
2022-10-28T06:44:32.562Z,68.20
2022-10-28T06:47:01.052Z,65.20
2022-10-28T06:49:29.344Z,61.90
2022-10-28T06:51:56.275Z,58.80
2022-10-28T06:54:23.224Z,56.60
2022-10-28T06:56:50.235Z,54.80
2022-10-28T06:59:17.230Z,53.30
2022-10-28T07:01:44.350Z,52.10
2022-10-28T07:04:13.066Z,51.00
2022-10-28T07:06:40.474Z,50.00
2022-10-28T07:09:08.016Z,49.60
2022-10-28T07:11:35.018Z,49.80
2022-10-28T07:14:02.258Z,49.90
2022-10-28T07:16:29.197Z,50.40
2022-10-28T07:18:56.150Z,50.50
2022-10-28T07:21:28.417Z,51.70
2022-10-28T07:23:58.667Z,52.70
2022-10-28T07:26:25.774Z,53.50
2022-10-28T07:28:52.706Z,54.20
2022-10-28T07:31:19.695Z,54.70
2022-10-28T07:33:52.772Z,54.80
2022-10-28T07:36:20.394Z,55.00
2022-10-28T07:38:51.838Z,55.10
2022-10-28T07:41:21.172Z,54.70
2022-10-28T07:43:48.247Z,54.50
2022-10-28T07:46:15.694Z,53.60
2022-10-28T07:48:42.783Z,52.80
2022-10-28T07:51:13.282Z,51.30
2022-10-28T07:53:40.953Z,50.00
2022-10-28T07:56:10.369Z,49.60
2022-10-28T07:58:37.481Z,48.80
2022-10-28T08:01:06.925Z,48.30
2022-10-28T08:03:38.685Z,46.60
2022-10-28T08:06:18.277Z,45.20
2022-10-28T08:08:53.385Z,43.50
2022-10-28T08:11:24.679Z,41.70
2022-10-28T08:13:53.011Z,40.50
2022-10-28T08:16:20.148Z,39.40
2022-10-28T08:18:47.363Z,38.40
2022-10-28T08:21:15.497Z,37.60
2022-10-28T08:23:46.819Z,36.80
2022-10-28T08:26:16.080Z,36.40
2022-10-28T08:28:43.461Z,36.00
2022-10-28T08:31:12.416Z,35.50
2022-10-28T08:33:45.381Z,34.90
2022-10-28T08:36:15.701Z,34.30
2022-10-28T08:38:48.765Z,34.20
2022-10-28T08:41:45.170Z,33.70
2022-10-28T08:44:41.612Z,34.50
2022-10-28T08:47:32.897Z,33.80
2022-10-28T08:50:05.589Z,32.70
2022-10-28T08:52:42.328Z,32.20
2022-10-28T08:55:38.610Z,31.60
2022-10-28T08:58:13.288Z,30.10
2022-10-28T09:00:43.335Z,30.00
2022-10-28T09:03:13.265Z,30.40
2022-10-28T09:05:43.310Z,29.80
2022-10-28T09:08:31.605Z,29.70
2022-10-28T09:11:10.663Z,29.50
2022-10-28T09:13:54.431Z,29.60
2022-10-28T09:16:21.338Z,29.50
2022-10-28T09:18:55.636Z,29.80
2022-10-28T09:21:32.783Z,29.80
2022-10-28T09:24:07.030Z,29.90
2022-10-28T09:26:56.866Z,30.10
2022-10-28T09:29:53.596Z,30.70
2022-10-28T09:32:23.282Z,31.10
2022-10-28T09:35:13.993Z,31.40
2022-10-28T09:37:55.351Z,31.20
2022-10-28T09:40:28.594Z,31.50
2022-10-28T09:43:39.834Z,31.90
2022-10-28T09:46:12.662Z,31.60
2022-10-28T09:48:44.681Z,31.90
2022-10-28T09:51:33.338Z,32.10
2022-10-28T09:54:00.818Z,32.10
2022-10-28T09:56:28.230Z,32.40
2022-10-28T09:58:57.382Z,32.70
2022-10-28T10:01:24.325Z,32.90
2022-10-28T10:03:51.777Z,33.00
2022-10-28T10:06:18.580Z,33.50
2022-10-28T10:08:45.836Z,33.70
2022-10-28T10:11:34.634Z,34.00
2022-10-28T10:14:04.904Z,34.80
2022-10-28T10:16:54.031Z,35.70
2022-10-28T10:19:21.181Z,35.70
2022-10-28T10:21:49.851Z,36.00
2022-10-28T10:24:28.937Z,35.90
2022-10-28T10:26:57.928Z,36.60
2022-10-28T10:29:24.812Z,34.70
2022-10-28T10:32:11.831Z,34.50
2022-10-28T10:34:42.132Z,34.10
2022-10-28T10:37:15.455Z,33.90
2022-10-28T10:39:42.317Z,33.40
2022-10-28T10:42:17.423Z,33.40
2022-10-28T10:44:44.349Z,32.90
2022-10-28T10:47:11.642Z,32.40
2022-10-28T10:49:38.559Z,31.80
2022-10-28T10:52:19.057Z,31.80
2022-10-28T10:54:57.458Z,30.70
2022-10-28T10:57:25.914Z,30.30
2022-10-28T10:59:54.554Z,30.00
2022-10-28T11:02:28.800Z,30.00
2022-10-28T11:04:57.900Z,29.30
2022-10-28T11:07:25.497Z,29.50
2022-10-28T11:09:52.406Z,29.50
2022-10-28T11:12:39.575Z,29.50
2022-10-28T11:15:09.707Z,29.30
2022-10-28T11:17:36.697Z,29.90
2022-10-28T11:20:25.575Z,29.70
2022-10-28T11:22:59.064Z,29.50
2022-10-28T11:25:37.277Z,29.30
2022-10-28T11:28:27.383Z,28.60
2022-10-28T11:30:54.305Z,28.40
2022-10-28T11:33:33.752Z,29.00
2022-10-28T11:36:30.219Z,29.40
2022-10-28T11:39:00.114Z,29.70
2022-10-28T11:41:26.940Z,29.60
2022-10-28T11:43:55.031Z,29.60
2022-10-28T11:46:40.975Z,29.00
2022-10-28T11:49:33.745Z,29.30
2022-10-28T11:52:00.575Z,29.30
2022-10-28T11:54:36.652Z,29.50
2022-10-28T11:57:13.940Z,29.50
2022-10-28T11:59:49.990Z,29.90
2022-10-28T12:02:19.857Z,30.00
2022-10-28T12:05:05.987Z,30.70
2022-10-28T12:07:52.717Z,31.50
2022-10-28T12:10:28.544Z,32.30
2022-10-28T12:13:14.156Z,32.70
2022-10-28T12:15:45.983Z,32.50
2022-10-28T12:18:31.519Z,31.80
2022-10-28T12:21:02.344Z,31.10
2022-10-28T12:23:29.809Z,30.50
2022-10-28T12:25:59.046Z,30.60
2022-10-28T12:28:43.718Z,29.80
2022-10-28T12:31:19.704Z,29.30
2022-10-28T12:33:49.438Z,29.20
2022-10-28T12:36:22.098Z,29.80
2022-10-28T12:39:01.971Z,30.50
2022-10-28T12:42:04.885Z,32.50
2022-10-28T12:44:34.564Z,34.60
2022-10-28T12:47:23.050Z,35.20
2022-10-28T12:50:02.842Z,36.20
2022-10-28T12:53:15.905Z,37.40
2022-10-28T12:55:56.579Z,38.20
2022-10-28T12:58:51.085Z,39.60
2022-10-28T13:01:20.987Z,40.30
2022-10-28T13:03:50.658Z,40.80
2022-10-28T13:06:17.563Z,40.90
2022-10-28T13:09:03.406Z,41.20
2022-10-28T13:11:48.745Z,41.50
2022-10-28T13:14:33.605Z,42.10
2022-10-28T13:17:09.399Z,41.90
2022-10-28T13:19:55.017Z,41.50
2022-10-28T13:22:52.392Z,41.30
2022-10-28T13:25:22.225Z,42.10
2022-10-28T13:27:58.880Z,42.40
2022-10-28T13:30:27.075Z,43.00
2022-10-28T13:33:16.761Z,43.40
2022-10-28T13:35:44.475Z,44.30
2022-10-28T13:38:13.314Z,44.80
2022-10-28T13:40:40.198Z,46.40
2022-10-28T13:43:21.543Z,46.50
2022-10-28T13:45:54.445Z,47.20
2022-10-28T13:48:30.604Z,47.40
2022-10-28T13:51:09.685Z,47.30
2022-10-28T13:53:45.661Z,47.20
2022-10-28T13:56:27.885Z,48.60
2022-10-28T13:59:29.318Z,49.20
2022-10-28T14:02:07.818Z,48.70
2022-10-28T14:04:43.921Z,47.00
2022-10-28T14:07:10.902Z,46.40
2022-10-28T14:09:41.415Z,45.70
2022-10-28T14:12:28.788Z,44.70
2022-10-28T14:15:02.823Z,43.70
2022-10-28T14:17:37.596Z,43.40
2022-10-28T14:20:08.538Z,42.80
2022-10-28T14:22:36.799Z,42.40
2022-10-28T14:25:41.830Z,43.10
2022-10-28T14:28:30.334Z,43.90
2022-10-28T14:31:10.100Z,45.00
2022-10-28T14:33:43.296Z,45.70
2022-10-28T14:36:19.542Z,46.40
2022-10-28T14:39:08.456Z,46.40
2022-10-28T14:41:44.243Z,48.10
2022-10-28T14:44:29.783Z,49.40
2022-10-28T14:47:15.650Z,50.40
2022-10-28T14:50:06.196Z,51.50
2022-10-28T14:52:37.026Z,51.90
2022-10-28T14:55:08.327Z,52.30
2022-10-28T14:57:35.528Z,52.90
2022-10-28T15:00:05.816Z,53.70
2022-10-28T15:02:35.674Z,54.60
2022-10-28T15:05:26.293Z,55.60
2022-10-28T15:07:53.986Z,56.80
2022-10-28T15:10:29.695Z,57.40
2022-10-28T15:12:58.845Z,58.50
2022-10-28T15:15:28.312Z,59.10
2022-10-28T15:17:55.966Z,59.80
2022-10-28T15:20:25.867Z,60.40
2022-10-28T15:22:54.622Z,61.30
2022-10-28T15:25:23.009Z,61.90
2022-10-28T15:27:54.102Z,62.50
2022-10-28T15:30:23.892Z,63.20
2022-10-28T15:32:52.305Z,63.40
2022-10-28T15:35:35.683Z,63.50
2022-10-28T15:38:23.471Z,64.00
2022-10-28T15:40:50.623Z,63.80
2022-10-28T15:43:25.808Z,64.00
2022-10-28T15:45:53.525Z,64.20
2022-10-28T15:48:25.024Z,64.40
2022-10-28T15:51:14.825Z,65.00
2022-10-28T15:53:48.969Z,65.60
2022-10-28T15:56:23.195Z,66.20
2022-10-28T15:59:07.732Z,66.80
2022-10-28T16:01:39.857Z,67.40
2022-10-28T16:04:45.369Z,67.80
2022-10-28T16:07:12.515Z,68.40
2022-10-28T16:09:46.595Z,68.70
2022-10-28T16:12:23.052Z,69.60
2022-10-28T16:14:57.027Z,70.10
2022-10-28T16:17:27.808Z,70.40
2022-10-28T16:20:04.202Z,70.80
2022-10-28T16:22:34.615Z,71.30
2022-10-28T16:25:01.613Z,71.60
2022-10-28T16:27:31.682Z,71.90
2022-10-28T16:29:59.021Z,72.50
2022-10-28T16:32:50.327Z,72.70
2022-10-28T16:35:21.481Z,73.30
2022-10-28T16:37:53.806Z,73.50
2022-10-28T16:40:49.653Z,73.70
2022-10-28T16:43:16.370Z,74.10
2022-10-28T16:45:44.089Z,74.50
2022-10-28T16:48:13.469Z,74.60
2022-10-28T16:50:42.891Z,75.00
2022-10-28T16:53:12.765Z,75.20
2022-10-28T16:55:40.795Z,75.30
2022-10-28T16:58:07.955Z,75.50
2022-10-28T17:00:36.660Z,75.70
2022-10-28T17:03:03.660Z,75.90
2022-10-28T17:05:30.994Z,76.30
2022-10-28T17:07:58.925Z,76.50
2022-10-28T17:10:26.970Z,76.80
2022-10-28T17:12:54.087Z,77.10
2022-10-28T17:15:21.286Z,77.30
2022-10-28T17:17:53.108Z,77.60
2022-10-28T17:20:20.747Z,77.90
2022-10-28T17:22:47.692Z,78.10
2022-10-28T17:25:14.752Z,78.20
2022-10-28T17:27:42.344Z,78.40
2022-10-28T17:30:09.884Z,78.60
2022-10-28T17:32:36.929Z,78.50
2022-10-28T17:35:04.150Z,78.50
2022-10-28T17:37:32.640Z,78.50
2022-10-28T17:40:00.116Z,78.50
2022-10-28T17:42:27.179Z,78.50
2022-10-28T17:44:54.330Z,78.50
2022-10-28T17:47:21.645Z,78.40
2022-10-28T17:49:48.910Z,78.30
2022-10-28T17:52:16.064Z,78.40
2022-10-28T17:54:43.045Z,78.70
2022-10-28T17:57:10.027Z,78.80
2022-10-28T17:59:37.123Z,78.90
2022-10-28T18:02:04.216Z,78.90
2022-10-28T18:04:31.301Z,78.80
2022-10-28T18:06:58.415Z,78.80
2022-10-28T18:09:27.660Z,78.60
2022-10-28T18:11:54.794Z,78.30
2022-10-28T18:14:21.918Z,78.30
2022-10-28T18:16:50.357Z,77.90
2022-10-28T18:19:18.377Z,77.80
2022-10-28T18:21:45.520Z,77.60
2022-10-28T18:24:12.536Z,77.40
2022-10-28T18:26:40.198Z,77.30
2022-10-28T18:29:10.117Z,77.60
2022-10-28T18:31:38.496Z,76.90
2022-10-28T18:34:05.550Z,76.70
2022-10-28T18:36:35.606Z,76.40
2022-10-28T18:39:05.370Z,76.10
2022-10-28T18:41:34.475Z,75.60
2022-10-28T18:44:03.947Z,75.20
2022-10-28T18:46:35.558Z,75.00
2022-10-28T18:49:05.514Z,74.70
2022-10-28T18:51:34.760Z,74.80
2022-10-28T18:54:01.917Z,74.80
2022-10-28T18:56:30.244Z,74.70
2022-10-28T18:58:58.430Z,74.50
2022-10-28T19:01:27.863Z,74.50
2022-10-28T19:03:58.245Z,74.50
2022-10-28T19:06:29.860Z,74.30
2022-10-28T19:08:59.594Z,74.30
2022-10-28T19:11:30.264Z,74.40
2022-10-28T19:14:02.905Z,74.10
2022-10-28T19:16:31.979Z,74.10
2022-10-28T19:19:00.096Z,74.10
2022-10-28T19:21:27.939Z,74.00
2022-10-28T19:23:55.466Z,73.60
2022-10-28T19:26:23.378Z,73.40
2022-10-28T19:28:51.680Z,73.30
2022-10-28T19:31:21.047Z,73.20
2022-10-28T19:33:48.518Z,73.10
2022-10-28T19:36:23.951Z,73.20
2022-10-28T19:38:53.748Z,73.40
2022-10-28T19:41:26.457Z,73.50
2022-10-28T19:43:59.061Z,73.30
2022-10-28T19:46:27.890Z,72.80
2022-10-28T19:48:57.818Z,72.40
2022-10-28T19:51:27.648Z,72.30
2022-10-28T19:54:03.185Z,72.10
2022-10-28T19:56:48.101Z,72.00
2022-10-28T19:59:15.172Z,71.90
2022-10-28T20:01:42.389Z,72.00
2022-10-28T20:04:10.278Z,72.10
2022-10-28T20:06:39.520Z,72.00
2022-10-28T20:09:07.326Z,71.90
2022-10-28T20:11:37.796Z,71.70
2022-10-28T20:14:11.771Z,71.40
2022-10-28T20:16:42.642Z,71.30
2022-10-28T20:19:10.213Z,71.30
2022-10-28T20:21:38.670Z,71.10
2022-10-28T20:24:06.981Z,70.90
2022-10-28T20:26:35.820Z,70.80
2022-10-28T20:29:03.063Z,70.80
2022-10-28T20:31:31.388Z,70.80
2022-10-28T20:34:01.609Z,70.80
2022-10-28T20:36:29.746Z,71.00
2022-10-28T20:38:59.817Z,71.10
2022-10-28T20:41:29.306Z,71.20
2022-10-28T20:43:56.635Z,71.00
2022-10-28T20:46:25.100Z,70.90
2022-10-28T20:48:56.643Z,70.70
2022-10-28T20:51:25.450Z,70.70
2022-10-28T20:53:52.829Z,70.60
2022-10-28T20:56:25.020Z,70.40
2022-10-28T20:58:53.027Z,70.30
2022-10-28T21:01:22.534Z,70.30
2022-10-28T21:03:52.915Z,70.40
2022-10-28T21:06:20.706Z,70.60
2022-10-28T21:08:47.948Z,70.70
2022-10-28T21:11:16.540Z,70.70
2022-10-28T21:13:46.179Z,70.70
2022-10-28T21:16:13.537Z,70.80
2022-10-28T21:18:41.254Z,70.70
2022-10-28T21:21:08.317Z,70.90
2022-10-28T21:23:35.280Z,71.00
2022-10-28T21:26:05.570Z,71.20
2022-10-28T21:28:33.876Z,71.40
2022-10-28T21:31:05.870Z,71.50
2022-10-28T21:33:35.183Z,71.60
2022-10-28T21:36:05.594Z,71.60
2022-10-28T21:38:33.299Z,71.50
2022-10-28T21:41:03.227Z,71.50
2022-10-28T21:43:35.949Z,71.70
2022-10-28T21:46:03.745Z,71.70
2022-10-28T21:48:32.521Z,71.60
2022-10-28T21:51:02.293Z,71.60
2022-10-28T21:53:32.696Z,71.60
2022-10-28T21:56:10.019Z,71.70
2022-10-28T21:58:39.613Z,71.90
2022-10-28T22:01:08.169Z,72.20
2022-10-28T22:03:35.751Z,72.20
2022-10-28T22:06:02.878Z,71.90
2022-10-28T22:08:30.476Z,71.70
2022-10-28T22:11:04.961Z,71.70
2022-10-28T22:13:32.562Z,71.80
2022-10-28T22:16:01.365Z,71.80
2022-10-28T22:18:29.643Z,71.90
2022-10-28T22:20:57.204Z,72.00
2022-10-28T22:23:24.158Z,72.00
2022-10-28T22:25:51.112Z,72.10
2022-10-28T22:28:18.044Z,72.20
2022-10-28T22:30:44.973Z,72.00
2022-10-28T22:33:11.942Z,72.20
2022-10-28T22:35:38.878Z,72.20
2022-10-28T22:38:05.806Z,72.20
2022-10-28T22:40:32.686Z,72.30
2022-10-28T22:42:59.628Z,72.40
2022-10-28T22:45:26.522Z,72.40
2022-10-28T22:47:54.095Z,72.30
2022-10-28T22:50:21.388Z,72.20
2022-10-28T22:52:48.591Z,72.30
2022-10-28T22:55:15.817Z,72.40
2022-10-28T22:57:42.790Z,72.30
2022-10-28T23:00:10.709Z,72.20
2022-10-28T23:02:37.797Z,72.20
2022-10-28T23:05:05.289Z,72.20
2022-10-28T23:07:32.257Z,72.30
2022-10-28T23:10:00.531Z,72.30
2022-10-28T23:12:27.583Z,72.50
2022-10-28T23:14:54.933Z,72.60
2022-10-28T23:17:21.899Z,72.90
2022-10-28T23:19:48.860Z,73.20
2022-10-28T23:22:15.855Z,73.30
2022-10-28T23:24:42.825Z,73.40
2022-10-28T23:27:09.883Z,73.50
2022-10-28T23:29:37.002Z,73.50
2022-10-28T23:32:04.092Z,73.40
2022-10-28T23:34:31.242Z,73.40
2022-10-28T23:36:58.220Z,73.40
2022-10-28T23:39:25.264Z,73.40
2022-10-28T23:41:52.209Z,73.50
2022-10-28T23:44:19.160Z,73.60
2022-10-28T23:46:46.252Z,73.80
2022-10-28T23:49:13.280Z,73.80
2022-10-28T23:51:40.252Z,74.00
2022-10-28T23:54:07.279Z,74.10
2022-10-28T23:56:34.350Z,74.50
2022-10-28T23:59:01.305Z,74.70
